sensor_id;sensor_type;location;lat;lon;timestamp;pressure;altitude;pressure_sealevel;temperature;humidity
54648;BME280;40543;53.584;9.858;2023-04-06T00:00:47;54453.97;;;-144.59;100.00
54648;BME280;40543;53.584;9.858;2023-04-06T00:03:12;54409.47;;;-144.59;100.00
54648;BME280;40543;53.584;9.858;2023-04-06T00:05:38;54419.59;;;-144.59;100.00
54648;BME280;40543;53.584;9.858;2023-04-06T00:08:03;54445.88;;;-144.59;100.00
54648;BME280;40543;53.584;9.858;2023-04-06T00:10:29;54409.47;;;-144.59;100.00
54648;BME280;40543;53.584;9.858;2023-04-06T00:12:55;54419.59;;;-144.59;100.00
54648;BME280;40543;53.584;9.858;2023-04-06T00:15:21;54445.88;;;-144.59;100.00
54648;BME280;40543;53.584;9.858;2023-04-06T00:17:47;54405.44;;;-144.59;100.00
54648;BME280;40543;53.584;9.858;2023-04-06T00:20:12;54423.63;;;-144.59;100.00
54648;BME280;40543;53.584;9.858;2023-04-06T00:22:37;54460.03;;;-144.59;100.00
54648;BME280;40543;53.584;9.858;2023-04-06T00:25:03;54458.00;;;-144.59;100.00
54648;BME280;40543;53.584;9.858;2023-04-06T00:27:28;54439.81;;;-144.59;100.00
54648;BME280;40543;53.584;9.858;2023-04-06T00:29:54;54466.09;;;-144.59;100.00
54648;BME280;40543;53.584;9.858;2023-04-06T00:32:20;54431.72;;;-144.59;100.00
54648;BME280;40543;53.584;9.858;2023-04-06T00:34:45;54403.41;;;-144.59;100.00
54648;BME280;40543;53.584;9.858;2023-04-06T00:37:11;54417.56;;;-144.59;100.00
54648;BME280;40543;53.584;9.858;2023-04-06T00:39:37;54451.94;;;-144.59;100.00
54648;BME280;40543;53.584;9.858;2023-04-06T00:42:08;54433.75;;;-144.59;100.00
54648;BME280;40543;53.584;9.858;2023-04-06T00:44:35;54407.47;;;-144.59;100.00
54648;BME280;40543;53.584;9.858;2023-04-06T00:47:01;54451.94;;;-144.59;100.00
54648;BME280;40543;53.584;9.858;2023-04-06T00:49:26;54423.63;;;-144.59;100.00
54648;BME280;40543;53.584;9.858;2023-04-06T00:51:52;54439.81;;;-144.59;100.00
54648;BME280;40543;53.584;9.858;2023-04-06T00:54:18;54451.94;;;-144.59;100.00
54648;BME280;40543;53.584;9.858;2023-04-06T00:56:43;54435.75;;;-144.59;100.00
54648;BME280;40543;53.584;9.858;2023-04-06T00:59:09;54439.81;;;-144.59;100.00
54648;BME280;40543;53.584;9.858;2023-04-06T01:01:35;54447.88;;;-144.59;100.00
54648;BME280;40543;53.584;9.858;2023-04-06T01:04:02;54435.75;;;-144.59;100.00
54648;BME280;40543;53.584;9.858;2023-04-06T01:06:28;54439.81;;;-144.59;100.00
54648;BME280;40543;53.584;9.858;2023-04-06T01:08:53;54439.81;;;-144.59;100.00
54648;BME280;40543;53.584;9.858;2023-04-06T01:11:19;54514.59;;;-144.59;100.00
54648;BME280;40543;53.584;9.858;2023-04-06T01:13:45;54476.19;;;-144.59;100.00
54648;BME280;40543;53.584;9.858;2023-04-06T01:16:10;54425.66;;;-144.59;100.00
54648;BME280;40543;53.584;9.858;2023-04-06T01:18:37;54449.91;;;-144.59;100.00
54648;BME280;40543;53.584;9.858;2023-04-06T01:21:03;54443.84;;;-144.59;100.00
54648;BME280;40543;53.584;9.858;2023-04-06T01:23:28;54421.59;;;-144.59;100.00
54648;BME280;40543;53.584;9.858;2023-04-06T01:25:54;54466.09;;;-144.59;100.00
54648;BME280;40543;53.584;9.858;2023-04-06T01:28:19;54466.09;;;-144.59;100.00
54648;BME280;40543;53.584;9.858;2023-04-06T01:30:45;54433.75;;;-144.59;100.00
54648;BME280;40543;53.584;9.858;2023-04-06T01:33:10;54453.97;;;-144.59;100.00
54648;BME280;40543;53.584;9.858;2023-04-06T01:35:36;54447.88;;;-144.59;100.00
54648;BME280;40543;53.584;9.858;2023-04-06T01:38:01;54458.00;;;-144.59;100.00
54648;BME280;40543;53.584;9.858;2023-04-06T01:40:27;54431.72;;;-144.59;100.00
54648;BME280;40543;53.584;9.858;2023-04-06T01:42:52;54439.81;;;-144.59;100.00
54648;BME280;40543;53.584;9.858;2023-04-06T01:45:17;54455.97;;;-144.59;100.00
54648;BME280;40543;53.584;9.858;2023-04-06T01:47:43;54480.25;;;-144.59;100.00
54648;BME280;40543;53.584;9.858;2023-04-06T01:50:08;54435.75;;;-144.59;100.00
54648;BME280;40543;53.584;9.858;2023-04-06T01:52:34;54435.75;;;-144.59;100.00
54648;BME280;40543;53.584;9.858;2023-04-06T01:54:59;54417.56;;;-144.59;100.00
54648;BME280;40543;53.584;9.858;2023-04-06T01:57:25;54460.03;;;-144.59;100.00
54648;BME280;40543;53.584;9.858;2023-04-06T01:59:51;54433.75;;;-144.59;100.00
54648;BME280;40543;53.584;9.858;2023-04-06T02:02:16;54407.47;;;-144.59;100.00
54648;BME280;40543;53.584;9.858;2023-04-06T02:04:42;54447.88;;;-144.59;100.00
54648;BME280;40543;53.584;9.858;2023-04-06T02:07:10;54399.38;;;-144.59;100.00
54648;BME280;40543;53.584;9.858;2023-04-06T02:09:35;54498.44;;;-144.59;100.00
54648;BME280;40543;53.584;9.858;2023-04-06T02:12:01;54451.94;;;-144.59;100.00
54648;BME280;40543;53.584;9.858;2023-04-06T02:14:27;54383.19;;;-144.59;100.00
54648;BME280;40543;53.584;9.858;2023-04-06T02:16:52;54451.94;;;-144.59;100.00
54648;BME280;40543;53.584;9.858;2023-04-06T02:19:18;54449.91;;;-144.59;100.00
54648;BME280;40543;53.584;9.858;2023-04-06T02:21:43;54466.09;;;-144.59;100.00
54648;BME280;40543;53.584;9.858;2023-04-06T02:24:08;54451.94;;;-144.59;100.00
54648;BME280;40543;53.584;9.858;2023-04-06T02:26:34;54458.00;;;-144.59;100.00
54648;BME280;40543;53.584;9.858;2023-04-06T02:28:59;54447.88;;;-144.59;100.00
54648;BME280;40543;53.584;9.858;2023-04-06T02:31:26;54468.09;;;-144.59;100.00
54648;BME280;40543;53.584;9.858;2023-04-06T02:33:51;54439.81;;;-144.59;100.00
54648;BME280;40543;53.584;9.858;2023-04-06T02:36:17;54439.81;;;-144.59;100.00
54648;BME280;40543;53.584;9.858;2023-04-06T02:38:42;54431.72;;;-144.59;100.00
54648;BME280;40543;53.584;9.858;2023-04-06T02:41:07;54447.88;;;-144.59;100.00
54648;BME280;40543;53.584;9.858;2023-04-06T02:43:33;54413.53;;;-144.59;100.00
54648;BME280;40543;53.584;9.858;2023-04-06T02:45:58;54472.16;;;-144.59;100.00
54648;BME280;40543;53.584;9.858;2023-04-06T02:48:23;54449.91;;;-144.59;100.00
54648;BME280;40543;53.584;9.858;2023-04-06T02:50:49;54427.69;;;-144.59;100.00
54648;BME280;40543;53.584;9.858;2023-04-06T02:53:14;54458.00;;;-144.59;100.00
54648;BME280;40543;53.584;9.858;2023-04-06T02:55:40;54458.00;;;-144.59;100.00
54648;BME280;40543;53.584;9.858;2023-04-06T02:58:05;54447.88;;;-144.59;100.00
54648;BME280;40543;53.584;9.858;2023-04-06T03:00:31;54443.84;;;-144.59;100.00
54648;BME280;40543;53.584;9.858;2023-04-06T03:02:56;54441.81;;;-144.59;100.00
54648;BME280;40543;53.584;9.858;2023-04-06T03:05:22;54423.63;;;-144.59;100.00
54648;BME280;40543;53.584;9.858;2023-04-06T03:07:47;54488.31;;;-144.59;100.00
54648;BME280;40543;53.584;9.858;2023-04-06T03:10:12;54488.31;;;-144.59;100.00
54648;BME280;40543;53.584;9.858;2023-04-06T03:12:38;54447.88;;;-144.59;100.00
54648;BME280;40543;53.584;9.858;2023-04-06T03:15:03;54433.75;;;-144.59;100.00
54648;BME280;40543;53.584;9.858;2023-04-06T03:17:29;54445.88;;;-144.59;100.00
54648;BME280;40543;53.584;9.858;2023-04-06T03:19:55;54478.22;;;-144.59;100.00
54648;BME280;40543;53.584;9.858;2023-04-06T03:22:20;54435.75;;;-144.59;100.00
54648;BME280;40543;53.584;9.858;2023-04-06T03:24:45;54464.06;;;-144.59;100.00
54648;BME280;40543;53.584;9.858;2023-04-06T03:27:11;54460.03;;;-144.59;100.00
54648;BME280;40543;53.584;9.858;2023-04-06T03:29:36;54468.09;;;-144.59;100.00
54648;BME280;40543;53.584;9.858;2023-04-06T03:32:02;54470.13;;;-144.59;100.00
54648;BME280;40543;53.584;9.858;2023-04-06T03:34:27;54445.88;;;-144.59;100.00
54648;BME280;40543;53.584;9.858;2023-04-06T03:36:53;54437.78;;;-144.59;100.00
54648;BME280;40543;53.584;9.858;2023-04-06T03:39:18;54466.09;;;-144.59;100.00
54648;BME280;40543;53.584;9.858;2023-04-06T03:41:43;54458.00;;;-144.59;100.00
54648;BME280;40543;53.584;9.858;2023-04-06T03:44:10;54458.00;;;-144.59;100.00
54648;BME280;40543;53.584;9.858;2023-04-06T03:46:35;54466.09;;;-144.59;100.00
54648;BME280;40543;53.584;9.858;2023-04-06T03:49:01;54460.03;;;-144.59;100.00
54648;BME280;40543;53.584;9.858;2023-04-06T03:51:27;54472.16;;;-144.59;100.00
54648;BME280;40543;53.584;9.858;2023-04-06T03:53:52;54510.56;;;-144.59;100.00
54648;BME280;40543;53.584;9.858;2023-04-06T03:56:18;54466.09;;;-144.59;100.00
54648;BME280;40543;53.584;9.858;2023-04-06T03:58:43;54480.25;;;-144.59;100.00
54648;BME280;40543;53.584;9.858;2023-04-06T04:01:10;54480.25;;;-144.59;100.00
54648;BME280;40543;53.584;9.858;2023-04-06T04:03:35;54480.25;;;-144.59;100.00
54648;BME280;40543;53.584;9.858;2023-04-06T04:06:01;54431.72;;;-144.59;100.00
54648;BME280;40543;53.584;9.858;2023-04-06T04:08:26;54492.38;;;-144.59;100.00
54648;BME280;40543;53.584;9.858;2023-04-06T04:10:52;54464.06;;;-144.59;100.00
54648;BME280;40543;53.584;9.858;2023-04-06T04:13:17;54464.06;;;-144.59;100.00
54648;BME280;40543;53.584;9.858;2023-04-06T04:15:43;54488.31;;;-144.59;100.00
54648;BME280;40543;53.584;9.858;2023-04-06T04:18:09;54439.81;;;-144.59;100.00
54648;BME280;40543;53.584;9.858;2023-04-06T04:20:34;54425.66;;;-144.59;100.00
54648;BME280;40543;53.584;9.858;2023-04-06T04:22:59;54451.94;;;-144.59;100.00
54648;BME280;40543;53.584;9.858;2023-04-06T04:25:25;54474.16;;;-144.59;100.00
54648;BME280;40543;53.584;9.858;2023-04-06T04:27:50;54486.31;;;-144.59;100.00
54648;BME280;40543;53.584;9.858;2023-04-06T04:30:16;54458.00;;;-144.59;100.00
54648;BME280;40543;53.584;9.858;2023-04-06T04:32:41;54472.16;;;-144.59;100.00
54648;BME280;40543;53.584;9.858;2023-04-06T04:35:07;54455.97;;;-144.59;100.00
54648;BME280;40543;53.584;9.858;2023-04-06T04:37:33;54462.03;;;-144.59;100.00
54648;BME280;40543;53.584;9.858;2023-04-06T04:39:59;54460.03;;;-144.59;100.00
54648;BME280;40543;53.584;9.858;2023-04-06T04:42:25;54455.97;;;-144.59;100.00
54648;BME280;40543;53.584;9.858;2023-04-06T04:44:51;54502.47;;;-144.59;100.00
54648;BME280;40543;53.584;9.858;2023-04-06T04:47:16;54468.09;;;-144.59;100.00
54648;BME280;40543;53.584;9.858;2023-04-06T04:49:42;54496.41;;;-144.59;100.00
54648;BME280;40543;53.584;9.858;2023-04-06T04:52:07;54455.97;;;-144.59;100.00
54648;BME280;40543;53.584;9.858;2023-04-06T04:54:32;54480.25;;;-144.59;100.00
54648;BME280;40543;53.584;9.858;2023-04-06T04:56:58;54443.84;;;-144.59;100.00
54648;BME280;40543;53.584;9.858;2023-04-06T04:59:23;54468.09;;;-144.59;100.00
54648;BME280;40543;53.584;9.858;2023-04-06T05:01:49;54486.31;;;-144.59;100.00
54648;BME280;40543;53.584;9.858;2023-04-06T05:04:14;54480.25;;;-144.59;100.00
54648;BME280;40543;53.584;9.858;2023-04-06T05:06:39;54445.88;;;-144.59;100.00
54648;BME280;40543;53.584;9.858;2023-04-06T05:09:05;54478.22;;;-144.59;100.00
54648;BME280;40543;53.584;9.858;2023-04-06T05:11:30;54447.88;;;-144.59;100.00
54648;BME280;40543;53.584;9.858;2023-04-06T05:13:56;54476.19;;;-144.59;100.00
54648;BME280;40543;53.584;9.858;2023-04-06T05:16:21;54504.50;;;-144.59;100.00
54648;BME280;40543;53.584;9.858;2023-04-06T05:18:47;54447.88;;;-144.59;100.00
54648;BME280;40543;53.584;9.858;2023-04-06T05:21:13;54419.59;;;-144.59;100.00
54648;BME280;40543;53.584;9.858;2023-04-06T05:23:38;54468.09;;;-144.59;100.00
54648;BME280;40543;53.584;9.858;2023-04-06T05:26:04;54460.03;;;-144.59;100.00
54648;BME280;40543;53.584;9.858;2023-04-06T05:28:30;54472.16;;;-144.59;100.00
54648;BME280;40543;53.584;9.858;2023-04-06T05:30:55;54445.88;;;-144.59;100.00
54648;BME280;40543;53.584;9.858;2023-04-06T05:33:22;54427.69;;;-144.59;100.00
54648;BME280;40543;53.584;9.858;2023-04-06T05:35:47;54476.19;;;-144.59;100.00
54648;BME280;40543;53.584;9.858;2023-04-06T05:38:13;54455.97;;;-144.59;100.00
54648;BME280;40543;53.584;9.858;2023-04-06T05:40:38;54453.97;;;-144.59;100.00
54648;BME280;40543;53.584;9.858;2023-04-06T05:43:06;54419.59;;;-144.59;100.00
54648;BME280;40543;53.584;9.858;2023-04-06T05:45:32;54458.00;;;-144.59;100.00
54648;BME280;40543;53.584;9.858;2023-04-06T05:47:57;54419.59;;;-144.59;100.00
54648;BME280;40543;53.584;9.858;2023-04-06T05:50:22;54433.75;;;-144.59;100.00
54648;BME280;40543;53.584;9.858;2023-04-06T05:52:48;54421.59;;;-144.59;100.00
54648;BME280;40543;53.584;9.858;2023-04-06T05:55:13;54451.94;;;-144.59;100.00
54648;BME280;40543;53.584;9.858;2023-04-06T05:57:39;54423.63;;;-144.59;100.00
54648;BME280;40543;53.584;9.858;2023-04-06T06:00:06;54413.53;;;-144.59;100.00
54648;BME280;40543;53.584;9.858;2023-04-06T06:02:34;54413.53;;;-144.59;100.00
54648;BME280;40543;53.584;9.858;2023-04-06T06:04:59;54383.19;;;-144.59;100.00
54648;BME280;40543;53.584;9.858;2023-04-06T06:07:25;54397.34;;;-144.59;100.00
54648;BME280;40543;53.584;9.858;2023-04-06T06:09:50;54365.00;;;-144.59;100.00
54648;BME280;40543;53.584;9.858;2023-04-06T06:12:16;54437.78;;;-144.59;100.00
54648;BME280;40543;53.584;9.858;2023-04-06T06:14:41;54468.09;;;-144.59;100.00
54648;BME280;40543;53.584;9.858;2023-04-06T06:17:07;54395.34;;;-144.59;100.00
54648;BME280;40543;53.584;9.858;2023-04-06T06:19:32;54354.91;;;-144.59;100.00
54648;BME280;40543;53.584;9.858;2023-04-06T06:21:57;54427.69;;;-144.59;100.00
54648;BME280;40543;53.584;9.858;2023-04-06T06:24:23;54391.28;;;-144.59;100.00
54648;BME280;40543;53.584;9.858;2023-04-06T06:26:49;54367.03;;;-144.59;100.00
54648;BME280;40543;53.584;9.858;2023-04-06T06:29:15;54415.53;;;-144.59;100.00
54648;BME280;40543;53.584;9.858;2023-04-06T06:31:40;54389.25;;;-144.59;100.00
54648;BME280;40543;53.584;9.858;2023-04-06T06:34:05;54338.72;;;-144.59;97.54
54648;BME280;40543;53.584;9.858;2023-04-06T06:36:31;54350.84;;;-144.59;96.88
54648;BME280;40543;53.584;9.858;2023-04-06T06:38:57;54397.34;;;-144.59;94.34
54648;BME280;40543;53.584;9.858;2023-04-06T06:41:23;54342.78;;;-144.59;91.80
54648;BME280;40543;53.584;9.858;2023-04-06T06:43:49;54348.84;;;-144.59;88.58
54648;BME280;40543;53.584;9.858;2023-04-06T06:46:14;54346.81;;;-144.59;88.09
54648;BME280;40543;53.584;9.858;2023-04-06T06:48:40;54356.91;;;-144.59;87.46
54648;BME280;40543;53.584;9.858;2023-04-06T06:51:05;54350.84;;;-144.59;85.65
54648;BME280;40543;53.584;9.858;2023-04-06T06:53:31;54336.69;;;-144.59;82.82
54648;BME280;40543;53.584;9.858;2023-04-06T06:55:56;54312.44;;;-144.59;81.39
54648;BME280;40543;53.584;9.858;2023-04-06T06:58:22;54336.69;;;-144.59;81.20
54648;BME280;40543;53.584;9.858;2023-04-06T07:00:47;54340.75;;;-144.59;79.01
54648;BME280;40543;53.584;9.858;2023-04-06T07:03:13;54342.78;;;-144.59;77.99
54648;BME280;40543;53.584;9.858;2023-04-06T07:05:45;54278.06;;;-144.59;76.69
54648;BME280;40543;53.584;9.858;2023-04-06T07:08:14;54306.38;;;-144.59;75.78
54648;BME280;40543;53.584;9.858;2023-04-06T07:10:39;54308.41;;;-144.59;76.66
54648;BME280;40543;53.584;9.858;2023-04-06T07:13:04;54249.78;;;-144.59;75.25
54648;BME280;40543;53.584;9.858;2023-04-06T07:15:30;54265.94;;;-144.59;73.41
54648;BME280;40543;53.584;9.858;2023-04-06T07:17:56;54263.94;;;-144.59;71.12
54648;BME280;40543;53.584;9.858;2023-04-06T07:20:21;54239.66;;;-144.59;70.13
54648;BME280;40543;53.584;9.858;2023-04-06T07:22:46;54239.66;;;-144.59;62.64
54648;BME280;40543;53.584;9.858;2023-04-06T07:25:14;54227.53;;;-144.59;61.24
54648;BME280;40543;53.584;9.858;2023-04-06T07:27:40;54235.63;;;-144.59;59.08
54648;BME280;40543;53.584;9.858;2023-04-06T07:30:06;54261.91;;;-144.59;61.17
54648;BME280;40543;53.584;9.858;2023-04-06T07:32:31;54243.72;;;-144.59;57.74
54648;BME280;40543;53.584;9.858;2023-04-06T07:34:57;54223.50;;;-144.59;53.80
54648;BME280;40543;53.584;9.858;2023-04-06T07:37:23;54203.28;;;-144.59;50.75
54648;BME280;40543;53.584;9.858;2023-04-06T07:39:48;54207.31;;;-144.59;49.18
54648;BME280;40543;53.584;9.858;2023-04-06T07:42:14;54166.91;;;-144.59;47.82
54648;BME280;40543;53.584;9.858;2023-04-06T07:44:39;54183.06;;;-144.59;45.24
54648;BME280;40543;53.584;9.858;2023-04-06T07:47:05;54162.84;;;-144.59;43.91
54648;BME280;40543;53.584;9.858;2023-04-06T07:49:30;54177.00;;;-144.59;45.28
54648;BME280;40543;53.584;9.858;2023-04-06T07:51:57;54164.88;;;-144.59;45.92
54648;BME280;40543;53.584;9.858;2023-04-06T07:54:22;54172.97;;;-144.59;45.23
54648;BME280;40543;53.584;9.858;2023-04-06T07:56:48;54130.50;;;-144.59;43.51
54648;BME280;40543;53.584;9.858;2023-04-06T07:59:13;54132.53;;;-144.59;41.86
54648;BME280;40543;53.584;9.858;2023-04-06T08:01:38;54136.56;;;-144.59;42.48
54648;BME280;40543;53.584;9.858;2023-04-06T08:04:04;54140.63;;;-144.59;42.95
54648;BME280;40543;53.584;9.858;2023-04-06T08:06:30;54116.34;;;-144.59;42.36
54648;BME280;40543;53.584;9.858;2023-04-06T08:08:55;54126.47;;;-144.59;42.21
54648;BME280;40543;53.584;9.858;2023-04-06T08:11:21;54150.72;;;-144.59;41.07
54648;BME280;40543;53.584;9.858;2023-04-06T08:13:46;54077.94;;;-144.59;39.88
54648;BME280;40543;53.584;9.858;2023-04-06T08:16:12;54065.81;;;-144.59;39.02
54648;BME280;40543;53.584;9.858;2023-04-06T08:18:37;54108.28;;;-144.59;37.84
54648;BME280;40543;53.584;9.858;2023-04-06T08:21:03;54079.97;;;-144.59;39.24
54648;BME280;40543;53.584;9.858;2023-04-06T08:23:28;54108.28;;;-144.59;37.75
54648;BME280;40543;53.584;9.858;2023-04-06T08:25:54;54100.19;;;-144.59;36.77
54648;BME280;40543;53.584;9.858;2023-04-06T08:28:20;54039.53;;;-144.59;37.34
54648;BME280;40543;53.584;9.858;2023-04-06T08:30:46;54047.63;;;-144.59;36.45
54648;BME280;40543;53.584;9.858;2023-04-06T08:33:12;54077.94;;;-144.59;37.06
54648;BME280;40543;53.584;9.858;2023-04-06T08:35:37;54051.66;;;-144.59;36.79
54648;BME280;40543;53.584;9.858;2023-04-06T08:38:03;54049.66;;;-144.59;36.09
54648;BME280;40543;53.584;9.858;2023-04-06T08:40:28;54041.56;;;-144.59;37.27
54648;BME280;40543;53.584;9.858;2023-04-06T08:42:59;54041.56;;;-144.59;37.59
54648;BME280;40543;53.584;9.858;2023-04-06T08:45:24;54003.16;;;-144.59;35.01
54648;BME280;40543;53.584;9.858;2023-04-06T08:47:51;54039.53;;;-144.59;34.12
54648;BME280;40543;53.584;9.858;2023-04-06T08:50:17;54035.50;;;-144.59;34.85
54648;BME280;40543;53.584;9.858;2023-04-06T08:52:45;54017.31;;;-144.59;33.48
54648;BME280;40543;53.584;9.858;2023-04-06T08:55:11;53989.00;;;-144.59;34.43
54648;BME280;40543;53.584;9.858;2023-04-06T08:57:37;54035.50;;;-144.59;33.88
54648;BME280;40543;53.584;9.858;2023-04-06T09:00:04;54009.22;;;-144.59;32.92
54648;BME280;40543;53.584;9.858;2023-04-06T09:02:30;54011.25;;;-144.59;33.10
54648;BME280;40543;53.584;9.858;2023-04-06T09:04:56;53978.91;;;-144.59;33.78
54648;BME280;40543;53.584;9.858;2023-04-06T09:07:22;54011.25;;;-144.59;33.22
54648;BME280;40543;53.584;9.858;2023-04-06T09:09:49;53960.72;;;-144.59;31.86
54648;BME280;40543;53.584;9.858;2023-04-06T09:12:26;53954.66;;;-144.59;31.58
54648;BME280;40543;53.584;9.858;2023-04-06T09:14:51;53989.00;;;-144.59;32.37
54648;BME280;40543;53.584;9.858;2023-04-06T09:17:26;53978.91;;;-144.59;31.75
54648;BME280;40543;53.584;9.858;2023-04-06T09:19:52;53972.84;;;-144.59;31.94
54648;BME280;40543;53.584;9.858;2023-04-06T09:22:18;53984.97;;;-144.59;30.97
54648;BME280;40543;53.584;9.858;2023-04-06T09:24:52;53944.53;;;-144.59;31.30
54648;BME280;40543;53.584;9.858;2023-04-06T09:27:30;53916.25;;;-144.59;31.22
54648;BME280;40543;53.584;9.858;2023-04-06T09:32:31;53950.59;;;-144.59;30.94
54648;BME280;40543;53.584;9.858;2023-04-06T09:35:09;53956.66;;;-144.59;31.60
54648;BME280;40543;53.584;9.858;2023-04-06T09:37:35;53974.84;;;-144.59;31.96
54648;BME280;40543;53.584;9.858;2023-04-06T09:40:05;53946.56;;;-144.59;30.70
54648;BME280;40543;53.584;9.858;2023-04-06T09:42:31;53926.34;;;-144.59;30.80
54648;BME280;40543;53.584;9.858;2023-04-06T09:44:56;53920.28;;;-144.59;30.96
54648;BME280;40543;53.584;9.858;2023-04-06T09:47:22;53918.25;;;-144.59;30.55
54648;BME280;40543;53.584;9.858;2023-04-06T09:49:55;53914.22;;;-144.59;31.23
54648;BME280;40543;53.584;9.858;2023-04-06T09:52:26;53881.88;;;-144.59;30.59
54648;BME280;40543;53.584;9.858;2023-04-06T09:54:52;53894.00;;;-144.59;30.05
54648;BME280;40543;53.584;9.858;2023-04-06T09:57:32;53896.03;;;-144.59;29.13
54648;BME280;40543;53.584;9.858;2023-04-06T10:00:05;53904.09;;;-144.59;28.91
54648;BME280;40543;53.584;9.858;2023-04-06T10:05:42;53934.44;;;-144.59;28.23
54648;BME280;40543;53.584;9.858;2023-04-06T10:08:10;53851.56;;;-144.59;28.33
54648;BME280;40543;53.584;9.858;2023-04-06T10:10:35;53851.56;;;-144.59;28.10
54648;BME280;40543;53.584;9.858;2023-04-06T10:13:03;53831.34;;;-144.59;27.83
54648;BME280;40543;53.584;9.858;2023-04-06T10:15:29;53809.09;;;-144.59;27.36
54648;BME280;40543;53.584;9.858;2023-04-06T10:17:56;53865.72;;;-144.59;28.30
54648;BME280;40543;53.584;9.858;2023-04-06T10:20:49;53859.63;;;-144.59;28.71
54648;BME280;40543;53.584;9.858;2023-04-06T10:26:00;53863.69;;;-144.59;27.90
54648;BME280;40543;53.584;9.858;2023-04-06T10:28:31;53823.25;;;-144.59;27.30
54648;BME280;40543;53.584;9.858;2023-04-06T10:30:59;53839.44;;;-144.59;26.43
54648;BME280;40543;53.584;9.858;2023-04-06T10:33:26;53799.00;;;-144.59;26.55
54648;BME280;40543;53.584;9.858;2023-04-06T10:35:52;53788.91;;;-144.59;26.46
54648;BME280;40543;53.584;9.858;2023-04-06T10:38:19;53788.91;;;-144.59;25.87
54648;BME280;40543;53.584;9.858;2023-04-06T10:40:47;53774.75;;;-144.59;25.62
54648;BME280;40543;53.584;9.858;2023-04-06T10:43:20;53825.28;;;-144.59;26.76
54648;BME280;40543;53.584;9.858;2023-04-06T10:45:57;53750.50;;;-144.59;25.82
54648;BME280;40543;53.584;9.858;2023-04-06T10:48:23;53774.75;;;-144.59;25.62
54648;BME280;40543;53.584;9.858;2023-04-06T10:50:50;53754.53;;;-144.59;25.35
54648;BME280;40543;53.584;9.858;2023-04-06T10:53:26;53841.44;;;-144.59;25.74
54648;BME280;40543;53.584;9.858;2023-04-06T10:55:54;53734.31;;;-144.59;25.35
54648;BME280;40543;53.584;9.858;2023-04-06T10:58:24;53756.56;;;-144.59;25.27
54648;BME280;40543;53.584;9.858;2023-04-06T11:00:50;53799.00;;;-144.59;26.14
54648;BME280;40543;53.584;9.858;2023-04-06T11:03:16;53766.66;;;-144.59;25.01
54648;BME280;40543;53.584;9.858;2023-04-06T11:08:22;53748.47;;;-144.59;25.28
54648;BME280;40543;53.584;9.858;2023-04-06T11:10:47;53689.84;;;-144.59;25.07
54648;BME280;40543;53.584;9.858;2023-04-06T11:13:14;53742.41;;;-144.59;24.74
54648;BME280;40543;53.584;9.858;2023-04-06T11:15:40;53718.16;;;-144.59;25.25
54648;BME280;40543;53.584;9.858;2023-04-06T11:18:05;53740.38;;;-144.59;24.57
54648;BME280;40543;53.584;9.858;2023-04-06T11:20:30;53744.44;;;-144.59;24.31
54648;BME280;40543;53.584;9.858;2023-04-06T11:22:56;53732.31;;;-144.59;24.58
54648;BME280;40543;53.584;9.858;2023-04-06T11:25:23;53712.09;;;-144.59;24.57
54648;BME280;40543;53.584;9.858;2023-04-06T11:27:50;53675.72;;;-144.59;23.63
54648;BME280;40543;53.584;9.858;2023-04-06T11:30:17;53659.53;;;-144.59;23.99
54648;BME280;40543;53.584;9.858;2023-04-06T11:32:44;53699.97;;;-144.59;24.44
54648;BME280;40543;53.584;9.858;2023-04-06T11:35:30;53645.38;;;-144.59;24.11
54648;BME280;40543;53.584;9.858;2023-04-06T11:37:56;53655.50;;;-144.59;22.94
54648;BME280;40543;53.584;9.858;2023-04-06T11:40:22;53683.78;;;-144.59;23.28
54648;BME280;40543;53.584;9.858;2023-04-06T11:42:54;53740.38;;;-144.59;24.70
54648;BME280;40543;53.584;9.858;2023-04-06T11:45:21;53714.09;;;-144.59;24.44
54648;BME280;40543;53.584;9.858;2023-04-06T11:48:00;53693.91;;;-144.59;23.54
54648;BME280;40543;53.584;9.858;2023-04-06T11:50:32;53695.91;;;-144.59;23.22
54648;BME280;40543;53.584;9.858;2023-04-06T11:53:00;53671.66;;;-144.59;24.12
54648;BME280;40543;53.584;9.858;2023-04-06T11:55:26;53689.84;;;-144.59;23.13
54648;BME280;40543;53.584;9.858;2023-04-06T11:57:52;53679.75;;;-144.59;23.77
54648;BME280;40543;53.584;9.858;2023-04-06T12:00:17;53627.19;;;-144.59;23.36
54648;BME280;40543;53.584;9.858;2023-04-06T12:02:47;53639.31;;;-144.59;23.61
54648;BME280;40543;53.584;9.858;2023-04-06T12:05:13;53635.28;;;-144.59;23.00
54648;BME280;40543;53.584;9.858;2023-04-06T12:07:38;53611.03;;;-144.59;23.11
54648;BME280;40543;53.584;9.858;2023-04-06T12:10:04;53602.94;;;-144.59;23.71
54648;BME280;40543;53.584;9.858;2023-04-06T12:12:30;53641.34;;;-144.59;23.55
54648;BME280;40543;53.584;9.858;2023-04-06T12:14:56;53578.69;;;-144.59;22.25
54648;BME280;40543;53.584;9.858;2023-04-06T12:17:21;53592.84;;;-144.59;22.01
54648;BME280;40543;53.584;9.858;2023-04-06T12:19:46;53617.09;;;-144.59;22.35
54648;BME280;40543;53.584;9.858;2023-04-06T12:22:12;53600.91;;;-144.59;23.39
54648;BME280;40543;53.584;9.858;2023-04-06T12:24:38;53582.72;;;-144.59;22.63
54648;BME280;40543;53.584;9.858;2023-04-06T12:27:03;53546.34;;;-144.59;22.73
54648;BME280;40543;53.584;9.858;2023-04-06T12:29:28;53530.19;;;-144.59;23.32
54648;BME280;40543;53.584;9.858;2023-04-06T12:31:54;53536.25;;;-144.59;22.22
54648;BME280;40543;53.584;9.858;2023-04-06T12:34:19;53526.13;;;-144.59;23.00
54648;BME280;40543;53.584;9.858;2023-04-06T12:36:45;53526.13;;;-144.59;22.36
54648;BME280;40543;53.584;9.858;2023-04-06T12:39:10;53516.03;;;-144.59;22.32
54648;BME280;40543;53.584;9.858;2023-04-06T12:41:36;53526.13;;;-144.59;22.56